Time;durP1;ratioP1;P1;durP2;ratioP2;P2;SDS_P1;SDS_P2;PMS_P1;PMS_P2;Temp;Humidity;BMP_temperature;BMP_pressure;BME280_temperature;BME280_humidity;BME280_pressure;Samples;Min_cycle;Max_cycle;Signal;HPM_P1;HPM_P2
2022/03/23 00:01:11;;;;;;;58.95;35.85;;;7.20;99.90;;;;;;6216206;23;20077;-76
2022/03/23 00:03:37;;;;;;;63.30;38.95;;;6.80;99.90;;;;;;6216152;23;20438;-74
2022/03/23 00:06:04;;;;;;;61.08;39.10;;;6.80;99.90;;;;;;6243789;23;20099;-75
2022/03/23 00:08:29;;;;;;;60.05;40.08;;;6.80;99.90;;;;;;6243346;23;20097;-75
2022/03/23 00:10:55;;;;;;;64.35;40.17;;;6.80;99.90;;;;;;6215676;23;20016;-74
2022/03/23 00:13:21;;;;;;;50.92;33.13;;;6.80;99.90;;;;;;6243595;23;20012;-75
2022/03/23 00:15:47;;;;;;;51.20;33.40;;;6.70;99.90;;;;;;6243625;23;20016;-74
2022/03/23 00:18:13;;;;;;;56.25;32.72;;;7.00;99.90;;;;;;6243375;23;20061;-75
2022/03/23 00:20:39;;;;;;;53.28;34.00;;;6.70;99.90;;;;;;6243763;23;20067;-75
2022/03/23 00:23:06;;;;;;;53.50;34.78;;;6.60;99.90;;;;;;6243534;23;20069;-76
2022/03/23 00:25:31;;;;;;;56.83;36.78;;;6.60;99.90;;;;;;6215684;23;20023;-75
2022/03/23 00:27:57;;;;;;;55.95;37.28;;;6.50;99.90;;;;;;6243482;23;20008;-75
2022/03/23 00:30:23;;;;;;;55.88;35.92;;;6.50;99.90;;;;;;6243192;23;20476;-78
2022/03/23 00:32:49;;;;;;;68.78;42.38;;;6.50;99.90;;;;;;6243149;23;20020;-76
2022/03/23 00:35:15;;;;;;;62.92;39.58;;;6.50;99.90;;;;;;6243085;23;20023;-75
2022/03/23 00:37:42;;;;;;;62.05;39.88;;;6.50;99.90;;;;;;6243591;23;20012;-76
2022/03/23 00:40:08;;;;;;;74.13;40.65;;;6.50;99.90;;;;;;6215481;23;20012;-76
2022/03/23 00:42:34;;;;;;;65.88;41.65;;;6.50;99.90;;;;;;6243393;23;20070;-79
2022/03/23 00:44:59;;;;;;;67.75;44.05;;;6.50;99.90;;;;;;6215947;23;20062;-77
2022/03/23 00:47:25;;;;;;;74.35;44.22;;;6.50;99.90;;;;;;6216205;23;20024;-77
2022/03/23 00:49:52;;;;;;;72.20;42.92;;;6.40;99.90;;;;;;6242725;23;20517;-78
2022/03/23 00:52:17;;;;;;;69.80;43.25;;;6.40;99.90;;;;;;6243290;23;20016;-76
2022/03/23 00:54:43;;;;;;;72.22;43.85;;;6.40;99.90;;;;;;6243372;23;20174;-76
2022/03/23 00:57:09;;;;;;;62.53;41.15;;;6.40;99.90;;;;;;6215615;23;20020;-81
2022/03/23 00:59:34;;;;;;;67.90;41.05;;;6.40;99.90;;;;;;6215422;23;20020;-76
2022/03/23 01:02:01;;;;;;;71.65;42.78;;;6.40;99.90;;;;;;6242378;23;20023;-76
2022/03/23 01:04:27;;;;;;;67.05;39.40;;;6.30;99.90;;;;;;6243389;23;20015;-76
2022/03/23 01:06:53;;;;;;;69.13;40.53;;;6.40;99.90;;;;;;6215482;23;20023;-75
2022/03/23 01:09:22;;;;;;;69.47;40.38;;;6.30;99.90;;;;;;6242867;23;20015;-77
2022/03/23 01:11:50;;;;;;;55.85;36.10;;;6.30;99.90;;;;;;6242216;23;20031;-75
2022/03/23 01:14:16;;;;;;;53.90;34.15;;;6.20;99.90;;;;;;6215577;23;20490;-75
2022/03/23 01:16:42;;;;;;;58.17;37.30;;;6.20;99.90;;;;;;6214870;23;20020;-77
2022/03/23 01:19:08;;;;;;;60.17;36.78;;;6.10;99.90;;;;;;6242698;23;20468;-74
2022/03/23 01:21:35;;;;;;;64.82;41.03;;;6.10;99.90;;;;;;6242866;23;20027;-78
2022/03/23 01:30:57;;;;;;;56.92;36.17;;;6.00;99.90;;;;;;6263412;22;20024;-78
2022/03/23 01:33:22;;;;;;;49.47;32.17;;;6.00;99.90;;;;;;6273873;22;20297;-78
2022/03/23 01:35:48;;;;;;;51.15;34.15;;;6.00;99.90;;;;;;6273270;22;20098;-78
2022/03/23 01:38:14;;;;;;;49.70;32.95;;;6.30;99.90;;;;;;6273321;22;20408;-81
2022/03/23 01:40:40;;;;;;;50.92;32.13;;;5.90;99.90;;;;;;6273254;22;20022;-78
2022/03/23 01:43:06;;;;;;;49.63;34.10;;;5.90;99.90;;;;;;6273202;22;20012;-79
2022/03/23 01:45:32;;;;;;;53.55;34.53;;;6.70;99.90;;;;;;6271349;22;20022;-83
2022/03/23 01:47:58;;;;;;;55.08;33.85;;;5.90;99.90;;;;;;6271649;22;20055;-80
2022/03/23 01:50:23;;;;;;;51.65;33.53;;;5.90;99.90;;;;;;6273328;22;20011;-81
2022/03/23 01:52:49;;;;;;;52.40;35.63;;;5.80;99.90;;;;;;6271223;22;20552;-82
2022/03/23 01:55:17;;;;;;;44.00;29.38;;;5.90;99.90;;;;;;6271169;22;20458;-78
2022/03/23 01:57:46;;;;;;;40.35;27.08;;;5.80;99.90;;;;;;6272480;22;20019;-80
2022/03/23 02:00:12;;;;;;;40.42;28.58;;;5.70;99.90;;;;;;6273033;22;20051;-79
2022/03/23 02:02:40;;;;;;;43.17;28.85;;;5.60;99.90;;;;;;6273061;22;20102;-82
2022/03/23 02:05:06;;;;;;;43.67;30.08;;;5.60;99.90;;;;;;6271207;22;20465;-81
2022/03/23 02:07:32;;;;;;;42.75;29.67;;;5.60;99.90;;;;;;6272790;22;20026;-78
2022/03/23 02:09:59;;;;;;;48.22;30.25;;;5.60;99.90;;;;;;6273106;22;20372;-80
2022/03/23 02:12:30;;;;;;;49.03;31.88;;;5.50;99.90;;;;;;6272864;22;20031;-78
2022/03/23 02:14:58;;;;;;;42.88;29.67;;;5.50;99.90;;;;;;6270361;22;20344;-78
2022/03/23 02:17:24;;;;;;;48.95;31.30;;;5.50;99.90;;;;;;6272718;22;20059;-78
2022/03/23 02:19:50;;;;;;;49.90;32.90;;;5.50;99.90;;;;;;6272592;22;20459;-78
2022/03/23 02:22:15;;;;;;;53.40;34.25;;;5.50;99.90;;;;;;6270775;22;20368;-80
2022/03/23 02:24:41;;;;;;;47.03;31.05;;;5.50;99.90;;;;;;6270640;22;20020;-78
2022/03/23 02:27:08;;;;;;;47.35;29.98;;;5.40;99.90;;;;;;6272571;22;20074;-81
2022/03/23 02:29:34;;;;;;;45.63;30.17;;;5.40;99.90;;;;;;6272198;22;20482;-84
2022/03/23 02:32:01;;;;;;;49.90;31.75;;;5.40;99.90;;;;;;6272893;22;20020;-77
2022/03/23 02:34:27;;;;;;;45.83;30.70;;;5.40;99.90;;;;;;6272382;22;20054;-79
2022/03/23 02:36:55;;;;;;;44.53;29.20;;;5.40;99.90;;;;;;6270507;22;20026;-78
2022/03/23 02:39:21;;;;;;;41.47;26.55;;;5.30;99.90;;;;;;6272764;22;20051;-78
2022/03/23 02:41:47;;;;;;;42.17;26.58;;;5.30;99.90;;;;;;6272991;22;20024;-79
2022/03/23 02:44:17;;;;;;;44.83;27.58;;;5.20;99.90;;;;;;6272539;22;20086;-76
2022/03/23 02:46:43;;;;;;;41.30;27.00;;;5.20;99.90;;;;;;6272558;22;20015;-77
2022/03/23 02:49:09;;;;;;;41.03;27.55;;;5.10;99.90;;;;;;6272646;22;20074;-78
2022/03/23 02:51:36;;;;;;;45.40;30.05;;;5.10;99.90;;;;;;6272469;22;20344;-77
2022/03/23 03:02:44;;;;;;;37.80;25.00;;;5.00;99.90;;;;;;6272266;22;20454;-84
2022/03/23 03:05:12;;;;;;;43.72;27.38;;;5.00;99.90;;;;;;6270639;22;20098;-78
2022/03/23 03:10:26;;;;;;;41.80;28.08;;;5.00;99.90;;;;;;6272573;22;20059;-79
2022/03/23 03:12:52;;;;;;;43.22;27.70;;;4.90;99.90;;;;;;6272588;22;20694;-79
2022/03/23 03:15:19;;;;;;;43.63;27.20;;;4.90;99.90;;;;;;6272440;22;20041;-78
2022/03/23 03:17:49;;;;;;;43.55;27.00;;;4.90;99.90;;;;;;6272170;22;20074;-78
2022/03/23 03:20:15;;;;;;;39.63;26.80;;;4.90;99.90;;;;;;6272472;22;20038;-78
2022/03/23 03:22:42;;;;;;;39.33;25.95;;;4.90;99.90;;;;;;6269716;22;20483;-78
2022/03/23 03:25:12;;;;;;;34.22;24.77;;;4.90;99.90;;;;;;6273338;22;20047;-76
2022/03/23 03:27:40;;;;;;;34.67;23.08;;;4.80;99.90;;;;;;6272481;22;20051;-78
2022/03/23 03:30:07;;;;;;;38.63;23.75;;;4.80;99.90;;;;;;6274938;22;20444;-75
2022/03/23 03:32:34;;;;;;;32.70;21.65;;;4.80;99.90;;;;;;6275072;22;20020;-78
2022/03/23 03:35:00;;;;;;;32.75;22.23;;;4.70;99.90;;;;;;6275544;22;20020;-77
2022/03/23 03:37:26;;;;;;;32.15;21.55;;;4.70;99.90;;;;;;6273613;22;20109;-77
2022/03/23 03:39:51;;;;;;;30.45;20.95;;;4.60;99.90;;;;;;6275340;22;20020;-78
2022/03/23 03:42:18;;;;;;;34.55;22.88;;;4.60;99.90;;;;;;6275333;22;20020;-77
2022/03/23 03:44:45;;;;;;;37.65;23.40;;;4.60;99.90;;;;;;6273858;22;20015;-80
2022/03/23 03:47:11;;;;;;;37.38;24.90;;;4.50;99.90;;;;;;6275525;22;20057;-81
2022/03/23 03:49:38;;;;;;;36.78;25.27;;;4.50;99.90;;;;;;6274218;22;20029;-83
2022/03/23 03:52:04;;;;;;;41.33;27.13;;;4.50;99.90;;;;;;6275970;22;20129;-80
2022/03/23 03:54:30;;;;;;;36.55;24.80;;;4.50;99.90;;;;;;6275434;22;20016;-82
2022/03/23 03:56:56;;;;;;;43.28;26.48;;;4.50;99.90;;;;;;6275043;22;20110;-77
2022/03/23 03:59:22;;;;;;;41.42;25.98;;;4.40;99.90;;;;;;6275775;22;20019;-79
2022/03/23 04:01:48;;;;;;;36.13;24.25;;;4.40;99.90;;;;;;6275574;22;20073;-80
2022/03/23 04:04:14;;;;;;;34.75;24.38;;;4.30;99.90;;;;;;6274866;22;20062;-83
2022/03/23 04:06:40;;;;;;;40.92;26.95;;;4.30;99.90;;;;;;6273767;22;20726;-83
2022/03/23 04:09:06;;;;;;;40.40;26.80;;;4.30;99.90;;;;;;6275504;22;20065;-77
2022/03/23 04:11:31;;;;;;;47.95;29.20;;;4.30;99.90;;;;;;6273602;22;20099;-77
2022/03/23 04:13:57;;;;;;;45.92;28.58;;;4.30;99.90;;;;;;6275436;22;20024;-77
2022/03/23 04:16:23;;;;;;;46.65;29.65;;;4.30;99.90;;;;;;6274865;22;20029;-80
2022/03/23 04:18:49;;;;;;;44.50;29.15;;;4.30;99.90;;;;;;6273212;22;20091;-79
2022/03/23 04:21:15;;;;;;;41.28;27.25;;;4.20;99.90;;;;;;6273686;22;20077;-80
2022/03/23 04:23:40;;;;;;;44.67;27.90;;;4.20;99.90;;;;;;6273061;22;20020;-78
2022/03/23 04:26:06;;;;;;;41.33;27.90;;;4.20;99.90;;;;;;6275377;22;20051;-82
2022/03/23 04:28:32;;;;;;;45.17;28.52;;;4.20;99.90;;;;;;6275417;22;20015;-77
2022/03/23 04:30:58;;;;;;;46.80;30.52;;;4.20;99.90;;;;;;6273018;22;20074;-77
2022/03/23 04:33:24;;;;;;;45.58;29.10;;;4.20;99.90;;;;;;6273111;22;20027;-82
2022/03/23 04:35:49;;;;;;;47.10;30.30;;;4.20;99.90;;;;;;6274761;22;20099;-77
2022/03/23 04:38:15;;;;;;;48.33;28.95;;;4.20;99.90;;;;;;6273775;22;20011;-75
2022/03/23 04:40:41;;;;;;;48.35;30.60;;;4.20;99.90;;;;;;6273799;22;20049;-77
2022/03/23 04:43:07;;;;;;;46.55;29.83;;;4.20;99.90;;;;;;6273334;22;20019;-80
2022/03/23 04:45:32;;;;;;;47.20;29.25;;;4.20;99.90;;;;;;6273251;22;20016;-80
2022/03/23 04:47:58;;;;;;;48.60;28.67;;;4.20;99.90;;;;;;6246182;22;20030;-77
2022/03/23 04:50:24;;;;;;;46.30;29.42;;;4.20;99.90;;;;;;6273329;22;20086;-80
2022/03/23 04:52:52;;;;;;;44.63;27.73;;;4.20;99.90;;;;;;6273976;22;20019;-82
2022/03/23 04:55:18;;;;;;;43.00;27.77;;;4.20;99.90;;;;;;6273665;22;20066;-80
2022/03/23 04:57:44;;;;;;;42.67;27.52;;;4.10;99.90;;;;;;6271268;22;20102;-77
2022/03/23 05:00:13;;;;;;;40.92;26.45;;;4.10;99.90;;;;;;6271738;22;20040;-78
2022/03/23 05:02:39;;;;;;;41.50;26.05;;;4.10;99.90;;;;;;6273934;22;20400;-77
2022/03/23 05:05:08;;;;;;;39.75;26.65;;;4.00;99.90;;;;;;6273113;22;20498;-83
2022/03/23 05:07:35;;;;;;;39.33;25.60;;;4.10;99.90;;;;;;6273354;22;20020;-76
2022/03/23 05:10:02;;;;;;;39.40;26.05;;;4.00;99.90;;;;;;6274004;22;20019;-78
2022/03/23 05:12:28;;;;;;;35.47;23.95;;;4.00;99.90;;;;;;6272263;22;20387;-77
2022/03/23 05:14:53;;;;;;;39.20;25.63;;;4.00;99.90;;;;;;6273150;22;20016;-77
2022/03/23 05:17:19;;;;;;;38.90;25.92;;;3.90;99.90;;;;;;6271431;22;20020;-76
2022/03/23 05:19:45;;;;;;;41.17;26.67;;;3.90;99.90;;;;;;6273429;22;20099;-77
2022/03/23 05:22:11;;;;;;;41.13;26.67;;;3.90;99.90;;;;;;6271090;22;20087;-77
2022/03/23 05:24:38;;;;;;;41.22;26.80;;;3.80;99.90;;;;;;6273177;22;20016;-77
2022/03/23 05:27:03;;;;;;;38.38;25.40;;;3.80;99.90;;;;;;6273397;22;20058;-82
2022/03/23 05:29:29;;;;;;;40.20;25.77;;;3.80;99.90;;;;;;6273433;22;20012;-80
2022/03/23 05:31:55;;;;;;;42.10;24.75;;;3.80;99.90;;;;;;6272776;22;20031;-75
2022/03/23 05:34:21;;;;;;;38.55;23.98;;;3.70;99.90;;;;;;6271325;22;20039;-76
2022/03/23 05:36:46;;;;;;;38.60;24.73;;;3.70;99.90;;;;;;6272922;22;20432;-76
2022/03/23 05:39:13;;;;;;;34.05;21.98;;;3.70;99.90;;;;;;6272743;22;20034;-77
2022/03/23 05:41:38;;;;;;;33.60;23.13;;;3.70;99.90;;;;;;6273154;22;20457;-81
2022/03/23 05:44:05;;;;;;;36.20;23.88;;;3.60;99.90;;;;;;6271131;22;20026;-77
2022/03/23 05:46:31;;;;;;;34.38;23.83;;;3.60;99.90;;;;;;6273054;22;20093;-77
2022/03/23 05:48:57;;;;;;;38.17;23.55;;;3.60;99.90;;;;;;6273144;22;20015;-76
2022/03/23 05:51:23;;;;;;;34.20;22.90;;;4.20;99.90;;;;;;6272687;22;20020;-77
2022/03/23 05:53:50;;;;;;;38.65;24.58;;;3.60;99.90;;;;;;6271000;22;20452;-78
2022/03/23 05:56:16;;;;;;;41.47;25.88;;;3.70;99.90;;;;;;6272789;22;20471;-76
2022/03/23 05:58:41;;;;;;;39.22;25.17;;;3.60;99.90;;;;;;6245306;22;20023;-76
2022/03/23 06:01:07;;;;;;;41.65;26.80;;;3.70;99.90;;;;;;6270645;22;20023;-77
2022/03/23 06:03:34;;;;;;;45.78;26.08;;;3.70;99.90;;;;;;6271193;22;20085;-77
2022/03/23 06:06:00;;;;;;;44.50;28.20;;;3.70;99.90;;;;;;6273298;22;20090;-77
2022/03/23 06:08:25;;;;;;;43.08;26.80;;;3.70;99.90;;;;;;6272445;22;20380;-77
2022/03/23 06:10:51;;;;;;;39.00;26.27;;;3.60;99.90;;;;;;6272920;22;20027;-77
2022/03/23 06:13:17;;;;;;;42.53;27.25;;;3.90;99.90;;;;;;6272883;22;20093;-77
2022/03/23 06:15:42;;;;;;;40.67;25.88;;;3.70;99.90;;;;;;6270979;22;20019;-77
2022/03/23 06:18:08;;;;;;;40.00;26.70;;;3.70;99.90;;;;;;6273054;22;20015;-76
2022/03/23 06:20:34;;;;;;;43.22;27.27;;;3.70;99.90;;;;;;6272757;22;20424;-76
2022/03/23 06:22:59;;;;;;;41.55;27.40;;;3.80;99.90;;;;;;6272253;22;20026;-77
2022/03/23 06:25:25;;;;;;;45.05;29.40;;;3.80;99.90;;;;;;6272805;22;20016;-77
2022/03/23 06:27:51;;;;;;;42.08;28.75;;;3.90;99.90;;;;;;6272788;22;20061;-77
2022/03/23 06:30:16;;;;;;;47.53;29.52;;;3.90;99.90;;;;;;6272638;22;20019;-76
2022/03/23 06:32:42;;;;;;;46.22;27.65;;;3.90;99.90;;;;;;6270811;22;20024;-76
2022/03/23 06:35:08;;;;;;;44.97;26.75;;;4.00;99.90;;;;;;6270704;22;20015;-77
2022/03/23 06:37:34;;;;;;;39.20;25.60;;;4.00;99.90;;;;;;6270896;22;20046;-77
2022/03/23 06:40:00;;;;;;;40.15;26.88;;;4.10;99.90;;;;;;6272538;22;20675;-77
2022/03/23 06:42:27;;;;;;;43.08;27.77;;;4.10;99.90;;;;;;6272719;22;20031;-76
2022/03/23 06:44:53;;;;;;;44.45;28.77;;;4.20;99.90;;;;;;6270933;22;20108;-77
2022/03/23 06:47:19;;;;;;;39.80;26.95;;;4.20;99.90;;;;;;6272466;22;20405;-77
2022/03/23 06:49:44;;;;;;;42.75;27.63;;;4.30;99.90;;;;;;6272094;22;20066;-79
2022/03/23 06:52:10;;;;;;;41.95;27.95;;;4.40;99.90;;;;;;6272377;22;20015;-77
2022/03/23 06:54:35;;;;;;;43.22;28.00;;;4.40;99.90;;;;;;6270051;22;20393;-77
2022/03/23 06:57:01;;;;;;;38.53;24.70;;;4.50;99.90;;;;;;6272513;22;20338;-82
2022/03/23 06:59:27;;;;;;;44.92;25.80;;;4.50;99.90;;;;;;6272184;22;20027;-77
2022/03/23 07:01:53;;;;;;;38.10;25.30;;;4.60;99.90;;;;;;6272318;22;20344;-78
2022/03/23 07:04:18;;;;;;;46.97;29.40;;;4.70;99.90;;;;;;6271959;22;20100;-77
2022/03/23 07:06:44;;;;;;;44.15;25.30;;;4.80;99.90;;;;;;6272408;22;20027;-76
2022/03/23 07:11:54;;;;;;;48.28;31.92;;;5.00;99.90;;;;;;6272403;22;20023;-77
2022/03/23 07:14:20;;;;;;;62.70;37.65;;;5.10;99.90;;;;;;6271952;22;20081;-78
2022/03/23 07:16:46;;;;;;;75.13;42.15;;;5.30;99.90;;;;;;6272269;22;20444;-78
2022/03/23 07:19:13;;;;;;;81.72;45.03;;;5.40;99.90;;;;;;6271990;22;20051;-78
2022/03/23 07:21:39;;;;;;;81.35;47.15;;;5.50;99.90;;;;;;6270424;22;20058;-78
2022/03/23 07:24:05;;;;;;;81.88;46.33;;;5.70;99.90;;;;;;6271794;22;20020;-80
2022/03/23 07:26:31;;;;;;;79.28;47.67;;;5.80;99.90;;;;;;6271882;22;20022;-78
2022/03/23 07:28:56;;;;;;;75.72;47.55;;;6.50;99.90;;;;;;6272381;22;20022;-77
2022/03/23 07:31:22;;;;;;;84.30;48.67;;;6.20;99.90;;;;;;6271579;22;20026;-76
2022/03/23 07:33:50;;;;;;;89.45;49.92;;;6.30;99.90;;;;;;6272413;22;20099;-81
2022/03/23 07:36:16;;;;;;;87.65;51.38;;;6.40;99.90;;;;;;6271687;22;20026;-77
2022/03/23 07:38:41;;;;;;;89.43;49.25;;;7.20;99.90;;;;;;6272240;22;20059;-83
2022/03/23 07:41:07;;;;;;;82.93;49.13;;;7.20;99.90;;;;;;6270034;22;20016;-83
2022/03/23 07:43:33;;;;;;;87.05;48.53;;;7.50;99.90;;;;;;6272548;22;20016;-81
2022/03/23 07:45:58;;;;;;;84.07;47.97;;;7.30;99.90;;;;;;6272396;22;20020;-77
2022/03/23 07:48:24;;;;;;;82.93;47.17;;;7.60;99.90;;;;;;6271880;22;20463;-82
2022/03/23 07:50:51;;;;;;;77.25;45.42;;;7.30;99.90;;;;;;6272305;22;20507;-77
2022/03/23 07:53:17;;;;;;;68.80;42.25;;;8.10;99.90;;;;;;6272467;22;20008;-77
2022/03/23 07:55:43;;;;;;;66.78;41.90;;;8.50;99.90;;;;;;6272098;22;20012;-79
2022/03/23 07:58:08;;;;;;;66.72;42.25;;;8.40;99.90;;;;;;6271664;22;20386;-81
2022/03/23 08:00:35;;;;;;;60.72;40.13;;;8.30;99.90;;;;;;6271408;22;20336;-83
2022/03/23 08:03:00;;;;;;;62.17;39.03;;;8.30;99.90;;;;;;6270305;22;20095;-79
2022/03/23 08:05:26;;;;;;;55.15;36.60;;;8.20;99.90;;;;;;6271969;22;20070;-78
2022/03/23 08:07:52;;;;;;;58.67;35.95;;;8.40;99.90;;;;;;6272259;22;20341;-78
2022/03/23 08:10:18;;;;;;;58.72;35.45;;;8.60;99.90;;;;;;6272630;22;20023;-78
2022/03/23 08:12:44;;;;;;;51.83;33.35;;;8.70;99.90;;;;;;6273089;22;20016;-78
2022/03/23 08:15:10;;;;;;;50.75;32.33;;;9.40;99.90;;;;;;6273721;22;20043;-79
2022/03/23 08:17:39;;;;;;;50.08;31.02;;;9.10;99.90;;;;;;6273401;22;20074;-80
2022/03/23 08:23:00;;;;;;;43.25;27.40;;;9.50;99.90;;;;;;6270676;22;20106;-78
2022/03/23 08:25:25;;;;;;;44.42;28.90;;;9.80;99.90;;;;;;6273982;22;20019;-82
2022/03/23 08:27:51;;;;;;;40.75;28.35;;;9.90;99.90;;;;;;6273424;22;20030;-81
2022/03/23 08:30:17;;;;;;;40.72;27.13;;;10.20;99.90;;;;;;6271861;22;20065;-79
2022/03/23 08:32:43;;;;;;;41.40;27.25;;;10.30;99.90;;;;;;6273950;22;20015;-78
2022/03/23 08:35:08;;;;;;;42.45;25.70;;;11.50;99.90;;;;;;6273569;22;20015;-79
2022/03/23 08:37:34;;;;;;;41.45;25.95;;;10.80;99.90;;;;;;6273403;22;20019;-80
2022/03/23 08:40:00;;;;;;;42.90;26.60;;;11.00;99.90;;;;;;6270542;22;20437;-80
2022/03/23 08:42:25;;;;;;;38.78;24.83;;;11.40;99.90;;;;;;6273346;22;20125;-81
2022/03/23 08:44:52;;;;;;;46.53;27.02;;;11.50;99.90;;;;;;6273899;22;20015;-79
2022/03/23 08:47:17;;;;;;;39.53;26.13;;;11.80;99.90;;;;;;6272086;22;20018;-78
2022/03/23 08:49:44;;;;;;;38.28;25.85;;;12.60;99.90;;;;;;6274211;22;20063;-78
2022/03/23 08:52:09;;;;;;;38.92;24.63;;;12.30;99.90;;;;;;6273598;22;20517;-80
2022/03/23 08:54:35;;;;;;;37.90;25.45;;;12.50;99.90;;;;;;6271479;22;20094;-81
2022/03/23 08:57:01;;;;;;;37.58;25.38;;;12.80;99.90;;;;;;6273103;22;20023;-78
2022/03/23 08:59:27;;;;;;;34.35;24.38;;;13.10;99.90;;;;;;6270797;22;20027;-78
2022/03/23 09:01:53;;;;;;;38.85;24.98;;;13.40;99.90;;;;;;6273701;22;20026;-79
2022/03/23 09:04:18;;;;;;;36.45;24.55;;;13.60;99.90;;;;;;6274040;22;20051;-78
2022/03/23 09:06:44;;;;;;;37.92;25.52;;;14.30;99.90;;;;;;6273106;22;20019;-80
2022/03/23 09:09:10;;;;;;;35.97;23.85;;;14.10;99.90;;;;;;6273700;22;20016;-85
2022/03/23 09:11:35;;;;;;;34.50;23.20;;;14.40;99.90;;;;;;6271445;22;20016;-78
2022/03/23 09:14:01;;;;;;;37.95;23.85;;;14.70;99.90;;;;;;6271237;22;20030;-79
2022/03/23 09:16:27;;;;;;;35.65;22.58;;;14.90;99.90;;;;;;6271888;22;20517;-77
2022/03/23 09:18:53;;;;;;;34.55;23.15;;;15.20;99.90;;;;;;6271617;22;20022;-78
2022/03/23 09:21:20;;;;;;;35.10;22.40;;;15.40;99.90;;;;;;6273472;22;20055;-80
2022/03/23 09:23:45;;;;;;;35.15;23.67;;;15.60;99.20;;;;;;6272870;22;20016;-78
2022/03/23 09:26:11;;;;;;;33.85;22.65;;;15.80;98.40;;;;;;6270836;22;20407;-78
2022/03/23 09:28:38;;;;;;;32.47;21.20;;;16.00;99.00;;;;;;6273892;22;20421;-78
2022/03/23 09:31:04;;;;;;;38.20;23.38;;;16.80;98.80;;;;;;6273235;22;20065;-78
2022/03/23 09:33:31;;;;;;;32.75;21.50;;;16.70;98.10;;;;;;6273190;22;20566;-78
2022/03/23 09:35:57;;;;;;;28.63;21.60;;;16.50;97.00;;;;;;6273350;22;20022;-80
2022/03/23 09:38:23;;;;;;;41.38;22.35;;;16.70;95.70;;;;;;6272765;22;20337;-79
2022/03/23 09:40:51;;;;;;;31.80;22.42;;;16.90;95.60;;;;;;6273121;22;20015;-80
2022/03/23 09:43:20;;;;;;;32.67;22.55;;;17.10;95.80;;;;;;6245537;22;20020;-80
2022/03/23 09:45:46;;;;;;;37.22;24.13;;;17.30;95.10;;;;;;6272843;22;20069;-84
2022/03/23 09:48:16;;;;;;;29.95;22.63;;;17.50;93.10;;;;;;6273161;22;20019;-82
2022/03/23 09:50:44;;;;;;;37.65;23.02;;;17.70;94.50;;;;;;6273233;22;20023;-83
2022/03/23 09:53:10;;;;;;;30.58;22.13;;;18.00;93.20;;;;;;6272896;22;20131;-85
2022/03/23 09:55:37;;;;;;;28.00;21.85;;;18.10;92.70;;;;;;6273284;22;20008;-80
2022/03/23 09:58:04;;;;;;;33.60;22.60;;;18.20;91.30;;;;;;6273340;22;20020;-84
2022/03/23 10:00:41;;;;;;;36.90;20.80;;;18.40;91.40;;;;;;6272401;22;20542;-85
2022/03/23 10:03:13;;;;;;;29.98;20.20;;;18.60;90.60;;;;;;6273225;22;20774;-80
2022/03/23 10:06:03;;;;;;;26.08;18.02;;;18.60;86.80;;;;;;6273396;22;20019;-82
2022/03/23 10:09:08;;;;;;;30.25;19.52;;;18.80;85.20;;;;;;6271795;22;20023;-80
2022/03/23 10:12:11;;;;;;;30.80;18.80;;;19.00;81.10;;;;;;6273586;22;20034;-86
2022/03/23 10:15:11;;;;;;;29.00;18.48;;;19.10;83.20;;;;;;6271327;22;20050;-83
2022/03/23 10:17:43;;;;;;;28.25;17.67;;;19.20;72.30;;;;;;6272916;22;20090;-83
2022/03/23 10:20:11;;;;;;;29.48;17.80;;;19.30;69.80;;;;;;6272829;22;20062;-82
2022/03/23 10:22:48;;;;;;;27.63;17.35;;;19.40;75.90;;;;;;6273399;22;20344;-81
2022/03/23 10:25:15;;;;;;;23.65;16.45;;;19.60;74.70;;;;;;6271006;22;20047;-83
2022/03/23 10:27:43;;;;;;;23.25;15.93;;;19.60;73.10;;;;;;6272903;22;20460;-83
2022/03/23 10:30:09;;;;;;;22.05;15.93;;;19.60;69.40;;;;;;6272377;22;20077;-83
2022/03/23 10:32:36;;;;;;;22.75;15.98;;;19.80;69.70;;;;;;6271044;22;20460;-81
2022/03/23 10:35:04;;;;;;;21.65;15.32;;;20.00;69.50;;;;;;6272911;22;20023;-82
2022/03/23 10:37:34;;;;;;;20.98;16.42;;;20.20;66.30;;;;;;6272529;22;20524;-81
2022/03/23 10:40:12;;;;;;;17.67;13.40;;;20.30;66.50;;;;;;6273312;22;20016;-81
2022/03/23 10:42:43;;;;;;;22.80;13.98;;;20.30;65.90;;;;;;6273356;22;20008;-81
2022/03/23 10:45:17;;;;;;;26.13;15.23;;;20.60;64.90;;;;;;6272923;22;20016;-82
2022/03/23 10:47:44;;;;;;;17.63;12.75;;;20.60;63.80;;;;;;6270591;22;20051;-81
2022/03/23 10:50:20;;;;;;;24.63;13.13;;;20.70;62.20;;;;;;6273207;22;20018;-80
2022/03/23 10:52:52;;;;;;;17.90;10.38;;;20.70;61.80;;;;;;6272905;22;20041;-81
2022/03/23 10:55:18;;;;;;;21.20;12.88;;;20.80;56.50;;;;;;6270982;22;20517;-81
2022/03/23 10:57:44;;;;;;;17.80;13.82;;;21.00;61.20;;;;;;6270836;22;20077;-82
2022/03/23 11:00:16;;;;;;;29.55;13.30;;;21.20;59.60;;;;;;6270819;22;20027;-83
2022/03/23 11:02:48;;;;;;;20.95;11.88;;;21.20;58.30;;;;;;6272087;22;20026;-81
2022/03/23 11:05:31;;;;;;;28.23;12.45;;;21.40;58.80;;;;;;6270596;22;20020;-81
2022/03/23 11:08:13;;;;;;;22.23;14.00;;;21.50;56.00;;;;;;6272766;22;20087;-82
2022/03/23 11:16:39;;;;;;;22.42;12.52;;;22.00;59.10;;;;;;6272426;22;20330;-82
2022/03/23 11:19:11;;;;;;;21.25;10.48;;;22.10;57.80;;;;;;6272105;22;20363;-82
2022/03/23 11:21:58;;;;;;;25.80;12.70;;;22.20;57.60;;;;;;6270744;22;20020;-83
2022/03/23 11:24:25;;;;;;;22.83;12.38;;;22.40;53.20;;;;;;6272532;22;20016;-81
2022/03/23 11:26:52;;;;;;;34.08;12.90;;;22.30;57.10;;;;;;6272491;22;20055;-81
2022/03/23 11:29:18;;;;;;;26.35;10.45;;;22.60;56.80;;;;;;6270116;22;20784;-81
2022/03/23 11:31:48;;;;;;;24.30;10.15;;;22.60;56.80;;;;;;6244719;22;20012;-81
2022/03/23 11:34:18;;;;;;;18.45;11.65;;;22.70;56.30;;;;;;6272327;22;20047;-80
2022/03/23 11:36:47;;;;;;;28.58;13.23;;;23.00;55.90;;;;;;6272416;22;20026;-82
2022/03/23 11:39:13;;;;;;;26.67;12.50;;;22.90;54.30;;;;;;6272325;22;20503;-81
2022/03/23 11:41:41;;;;;;;20.23;11.07;;;22.90;56.00;;;;;;6272450;22;20023;-81
2022/03/23 11:44:07;;;;;;;24.38;12.60;;;22.90;56.50;;;;;;6272696;22;20516;-81
2022/03/23 11:46:33;;;;;;;26.20;13.65;;;23.30;56.80;;;;;;6273126;22;20035;-81
2022/03/23 11:49:12;;;;;;;27.98;13.23;;;23.20;55.20;;;;;;6273711;22;20077;-81
2022/03/23 11:51:50;;;;;;;21.33;10.15;;;23.20;55.50;;;;;;6247104;22;20403;-81
2022/03/23 11:57:38;;;;;;;22.92;9.43;;;23.60;54.30;;;;;;6274066;22;20024;-80
2022/03/23 12:00:16;;;;;;;23.35;9.65;;;23.60;54.10;;;;;;6274289;22;20012;-82
2022/03/23 12:02:41;;;;;;;28.02;9.85;;;23.70;50.20;;;;;;6274958;22;20379;-80
2022/03/23 12:05:39;;;;;;;26.98;9.75;;;23.80;53.30;;;;;;6272285;22;20076;-81
2022/03/23 12:08:06;;;;;;;24.30;9.10;;;23.70;51.70;;;;;;6273428;22;20063;-80
2022/03/23 12:10:32;;;;;;;27.10;9.00;;;23.80;51.50;;;;;;6271354;22;20099;-80
2022/03/23 12:13:12;;;;;;;22.30;7.82;;;23.80;51.20;;;;;;6273958;22;20023;-82
2022/03/23 12:15:58;;;;;;;20.40;7.82;;;23.90;49.90;;;;;;6274289;22;20043;-81
2022/03/23 12:18:59;;;;;;;25.33;8.40;;;23.90;50.30;;;;;;6272026;22;20016;-80
2022/03/23 12:21:33;;;;;;;22.70;8.50;;;23.70;49.80;;;;;;6246176;22;20026;-80
2022/03/23 12:24:24;;;;;;;24.08;8.35;;;23.80;50.00;;;;;;6273929;22;20046;-81
2022/03/23 12:26:56;;;;;;;33.55;9.27;;;23.80;50.70;;;;;;6272368;22;20373;-81
2022/03/23 12:29:34;;;;;;;26.88;9.30;;;23.80;49.60;;;;;;6274062;22;20026;-80
2022/03/23 12:32:05;;;;;;;27.13;8.77;;;23.90;50.40;;;;;;6274059;22;20047;-81
2022/03/23 12:34:32;;;;;;;19.05;9.18;;;24.20;51.40;;;;;;6273744;22;20026;-81
2022/03/23 12:37:09;;;;;;;26.35;9.80;;;24.20;50.90;;;;;;6273744;22;20015;-80
2022/03/23 12:39:36;;;;;;;18.27;8.63;;;24.20;48.10;;;;;;6274207;22;20069;-82
2022/03/23 12:42:16;;;;;;;20.77;8.30;;;24.20;50.30;;;;;;6272027;22;20460;-81
2022/03/23 12:45:03;;;;;;;24.02;9.45;;;24.30;49.10;;;;;;6271937;22;20026;-83
2022/03/23 12:47:30;;;;;;;23.58;8.52;;;24.30;48.60;;;;;;6272218;22;20023;-82
2022/03/23 12:59:17;;;;;;;22.85;7.60;;;24.80;49.60;;;;;;6123979;23;20096;-79
2022/03/23 13:01:44;;;;;;;23.27;8.00;;;24.70;49.80;;;;;;6149639;23;20660;-80
2022/03/23 13:04:38;;;;;;;23.50;8.10;;;24.70;49.30;;;;;;6149601;23;20017;-80
2022/03/23 13:07:28;;;;;;;25.30;8.38;;;24.80;49.10;;;;;;6124321;23;20049;-80
2022/03/23 13:09:55;;;;;;;21.70;7.88;;;24.80;47.70;;;;;;6124885;23;20021;-80
2022/03/23 13:12:25;;;;;;;21.65;7.63;;;25.00;49.40;;;;;;6124879;23;20026;-80
2022/03/23 13:14:51;;;;;;;19.02;7.88;;;24.90;48.60;;;;;;6149387;23;20021;-81
2022/03/23 13:17:19;;;;;;;21.65;8.55;;;25.00;48.50;;;;;;6149436;23;20029;-81
2022/03/23 13:19:45;;;;;;;19.77;8.45;;;24.90;48.30;;;;;;6124447;23;20587;-81